• Join FlightAware (Why Join?)
  • Login
  • US Flag 
09:37AM EDT


 

Airport Tracker/Info


-or-


 

Live Flight TrackerFlight Track Log ✈ UPS2973 ✈ 01-Nov-2013 ✈ KPDX - KSDF

Flight Track Log - Related Links

Times and Time Zones

All times are in EDT time to prevent confusion due to time zone crossing. See the UPS2973 flight status page for this flight to view local times or setup timezone preferences in your user account.

Time Position Orientation Groundspeed Altitude Reporting Facility
EDT Latitude Longitude Course Direction KTS MPH feet Rate Location/Type
10:00AM 45.5811 -122.5878 74° East 158 182 1,000  Level Seattle Center
10:06AM 45.7150 -121.9310 59° Northeast 413 475 15,100 2,340 Climbing FlightAware ADS-B
10:06AM 45.7318 -121.8890 60° Northeast 419 482 16,200 3,240 Climbing FlightAware ADS-B
10:07AM 45.7417 -121.8490 70° East 431 496 16,900 2,820 Climbing FlightAware ADS-B
10:07AM 45.7449 -121.8250 79° East 439 505 17,300 3,000 Climbing FlightAware ADS-B
10:07AM 45.7463 -121.7900 87° East 446 513 17,900 2,760 Climbing FlightAware ADS-B
10:07AM 45.7464 -121.7000 90° East 460 529 19,300 2,640 Climbing FlightAware ADS-B
10:08AM 45.7458 -121.6060 90° East 474 545 20,600 2,580 Climbing FlightAware ADS-B
10:08AM 45.7448 -121.5110 91° East 483 556 21,900 2,280 Climbing FlightAware ADS-B
10:09AM 45.7439 -121.4050 91° East 495 570 23,000 2,340 Climbing FlightAware ADS-B
10:10AM 45.7429 -121.2790 91° East 500 575 24,700 2,460 Climbing FlightAware ADS-B
10:10AM 45.7418 -121.1600 91° East 504 580 26,100 2,160 Climbing FlightAware ADS-B
10:11AM 45.7407 -121.0510 91° East 513 590 27,200 1,860 Climbing FlightAware ADS-B
10:11AM 45.7394 -120.9280 91° East 532 612 28,200 2,280 Climbing FlightAware ADS-B
10:12AM 45.7380 -120.7850 91° East 528 608 30,100 2,100 Climbing FlightAware
10:13AM 45.7360 -120.6540 91° East 540 621 31,000 600 Climbing FlightAware
10:13AM 45.7330 -120.4650 91° East 550 633 31,000  Level FlightAware
10:14AM 45.7310 -120.3270 91° East 543 625 31,000  Level FlightAware
10:15AM 45.7280 -120.1890 92° East 542 624 31,000  Level FlightAware
10:16AM 45.7250 -120.0260 91° East 540 621 31,000  Level FlightAware
10:16AM 45.7210 -119.8390 92° East 538 619 31,000 120 Level FlightAware
10:17AM 45.7180 -119.7080 92° East 540 621 31,200 960 Climbing FlightAware
10:18AM 45.7150 -119.5670 92° East 546 628 32,300 1,620 Climbing FlightAware
10:18AM 45.7110 -119.4120 92° East 548 631 33,500 1,560 Climbing FlightAware
10:19AM 45.7070 -119.2320 92° East 550 633 34,700 960 Climbing FlightAware
10:20AM 45.7030 -119.0830 92° East 551 634 35,000 180 Climbing FlightAware
10:21AM 45.6930 -118.9480 96° East 554 638 35,000  Level FlightAware
10:21AM 45.6660 -118.7740 102° East 553 636 35,000  Level FlightAware
10:22AM 45.6450 -118.6610 105° East 554 638 35,000  Level FlightAware
10:23AM 45.6150 -118.5140 106° East 553 636 35,000  Level FlightAware
10:23AM 45.5870 -118.3810 107° East 553 636 35,000  Level FlightAware
10:24AM 45.5610 -118.2560 107° East 552 635 35,000  Level FlightAware
10:25AM 45.5280 -118.1030 107° East 553 636 35,000  Level FlightAware
10:25AM 45.4970 -117.9580 107° East 554 638 35,000  Level FlightAware
10:26AM 45.4600 -117.7890 107° East 555 639 35,000  Level FlightAware
10:27AM 45.4250 -117.6290 107° East 557 641 35,000  Level FlightAware
10:27AM 45.3950 -117.4900 107° East 557 641 35,000  Level FlightAware
10:28AM 45.3640 -117.3500 107° East 558 642 35,000  Level FlightAware
10:29AM 45.3380 -117.2320 107° East 558 642 35,000  Level FlightAware
10:29AM 45.3050 -117.0830 107° East 558 642 35,000  Level FlightAware
10:30AM 45.2750 -116.9460 107° East 558 642 35,000  Level FlightAware
10:31AM 45.2450 -116.8150 108° East 558 642 35,000  Level FlightAware
10:31AM 45.2180 -116.6950 108° East 557 641 35,000  Level FlightAware
10:32AM 45.1890 -116.5700 108° East 556 640 35,000  Level FlightAware
10:33AM 45.1570 -116.4290 108° East 557 641 35,000  Level FlightAware
10:33AM 45.1210 -116.2730 108° East 556 640 35,000  Level FlightAware
10:34AM 45.0840 -116.1140 108° East 556 640 35,000  Level FlightAware
10:35AM 45.0580 -116.0020 108° East 556 640 35,000  Level FlightAware
10:35AM 45.0260 -115.8660 108° East 556 640 35,000  Level FlightAware
10:36AM 44.9900 -115.7150 109° East 555 639 35,000  Level FlightAware
10:37AM 44.9570 -115.5780 109° East 556 640 35,000  Level FlightAware
10:37AM 44.9190 -115.4200 109° East 556 640 35,000  Level FlightAware
10:38AM 44.8900 -115.2980 109° East 555 639 35,000  Level FlightAware
10:39AM 44.8560 -115.1610 109° East 555 639 35,000  Level FlightAware
10:39AM 44.8170 -114.9980 109° East 554 638 35,000  Level FlightAware
10:40AM 44.7850 -114.8680 109° East 554 638 35,000  Level FlightAware
10:41AM 44.7420 -114.6970 109° East 554 638 35,000  Level FlightAware
10:42AM 44.7140 -114.5840 109° East 555 639 35,000  Level FlightAware
10:42AM 44.6760 -114.4300 109° East 555 639 35,000  Level FlightAware
10:43AM 44.6440 -114.2960 109° East 555 639 35,000  Level FlightAware
10:44AM 44.6190 -114.1980 110° East 555 639 35,000  Level FlightAware
10:45AM 44.5850 -114.0590 109° East 555 639 35,000  Level FlightAware
10:46AM 44.4950 -113.7150 110° East 554 638 35,000  Level FlightAware
10:47AM 44.4510 -113.5370 109° East 554 638 35,000  Level FlightAware
10:48AM 44.4160 -113.3980 109° East 554 638 35,000  Level FlightAware
10:49AM 44.3820 -113.2600 109° East 554 638 35,000  Level FlightAware
10:49AM 44.3560 -113.1530 109° East 554 638 35,000  Level FlightAware
10:50AM 44.3040 -112.9430 109° East 554 638 35,000  Level FlightAware
10:51AM 44.2790 -112.8390 109° East 554 638 35,000  Level FlightAware
10:52AM 44.2530 -112.7360 109° East 554 638 35,000  Level FlightAware
10:52AM 44.2190 -112.5980 109° East 554 638 35,000  Level FlightAware
10:53AM 44.1940 -112.4940 109° East 554 638 35,000  Level FlightAware
10:54AM 44.1670 -112.3880 110° East 554 638 35,000  Level FlightAware
10:54AM 44.1330 -112.2500 109° East 554 638 35,000  Level FlightAware
10:55AM 44.1080 -112.1470 109° East 554 638 35,000  Level FlightAware
10:56AM 43.9286 -111.5869 109° East 569 655 35,000  Level Salt Lake Center
10:57AM 43.8772 -111.3928 110° East 566 651 35,000  Level Salt Lake Center
10:59AM 43.8172 -111.1656 110° East 566 651 35,000  Level Salt Lake Center
11:00AM 43.7653 -110.9706 110° East 567 652 35,000  Level Salt Lake Center
11:01AM 43.7044 -110.7406 110° East 570 656 35,000  Level Salt Lake Center
11:02AM 43.6506 -110.5431 111° Southeast 575 662 35,000 60 Level Salt Lake Center
11:03AM 43.5989 -110.3153 107° East 562 647 35,200 780 Climbing Salt Lake Center
11:04AM 43.5561 -110.1194 107° East 558 642 36,700 840 Climbing Salt Lake Center
11:05AM 43.5061 -109.8883 107° East 556 640 37,000 120 Climbing Salt Lake Center
11:06AM 43.4592 -109.6800 107° East 556 640 37,000  Level Salt Lake Center
11:07AM 43.4136 -109.4772 107° East 558 642 37,000  Level Salt Lake Center
11:08AM 43.3681 -109.2717 107° East 563 648 37,000  Level Salt Lake Center
11:09AM 43.3228 -109.0700 107° East 558 642 37,000  Level Salt Lake Center
11:10AM 43.2769 -108.8686 107° East 557 641 37,000  Level Salt Lake Center
11:11AM 43.2219 -108.6303 107° East 552 635 37,000  Level Salt Lake Center
11:12AM 43.1744 -108.4283 108° East 555 639 37,000  Level Salt Lake Center
11:13AM 43.1286 -108.2278 107° East 555 639 37,000  Level Salt Lake Center
11:14AM 43.0811 -108.0264 108° East 558 642 37,000  Level Salt Lake Center
11:15AM 43.0339 -107.8256 108° East 558 642 37,000  Level Salt Lake Center
11:16AM 42.9858 -107.6256 108° East 557 641 37,000  Level Salt Lake Center
11:17AM 42.9281 -107.3864 108° East 555 639 37,000  Level Salt Lake Center
11:18AM 42.8764 -107.1772 109° East 556 640 37,000  Level Salt Lake Center
11:24AM 42.5970 -106.0660 109° East 563 648 37,000  Level FlightAware
11:24AM 42.5680 -105.9520 109° East 563 648 37,000  Level FlightAware
11:25AM 42.5420 -105.8500 109° East 563 648 37,000  Level FlightAware
11:26AM 42.5080 -105.7130 109° East 563 648 37,000  Level FlightAware
11:26AM 42.4820 -105.6110 109° East 563 648 37,000  Level FlightAware
11:28AM 42.3980 -105.3050 110° East 562 647 37,000  Level FlightAware
11:28AM 42.3730 -105.2120 110° East 563 648 37,000  Level FlightAware
11:30AM 42.2900 -104.9030 110° East 560 644 37,000  Level FlightAware
11:30AM 42.2620 -104.8000 110° East 559 643 37,000  Level FlightAware
11:31AM 42.2350 -104.7000 110° East 559 643 37,000  Level FlightAware
11:31AM 42.1930 -104.5460 110° East 555 639 37,000  Level FlightAware
11:32AM 42.1600 -104.4290 111° Southeast 554 638 37,000  Level FlightAware
11:32AM 42.1350 -104.3360 110° East 554 638 37,000  Level FlightAware
11:33AM 42.1050 -104.2260 110° East 554 638 37,000  Level FlightAware
11:34AM 42.0570 -104.0580 111° Southeast 555 639 37,000  Level FlightAware
11:34AM 42.0270 -103.9480 110° East 555 639 37,000  Level FlightAware
11:35AM 41.9880 -103.8120 111° Southeast 557 641 37,000  Level FlightAware
11:36AM 41.9480 -103.6700 111° Southeast 557 641 37,000  Level FlightAware
11:37AM 41.8880 -103.4440 110° East 558 642 37,000  Level FlightAware
11:38AM 41.8590 -103.3300 109° East 560 644 37,000  Level FlightAware
11:38AM 41.8320 -103.2220 109° East 561 646 37,000  Level FlightAware
11:39AM 41.7820 -103.0180 108° East 564 649 37,000  Level FlightAware
11:40AM 41.7480 -102.8790 108° East 564 649 37,000  Level FlightAware
11:41AM 41.7170 -102.7530 108° East 565 650 37,000  Level FlightAware
11:41AM 41.6810 -102.6070 108° East 565 650 37,000  Level FlightAware
11:42AM 41.6520 -102.4870 108° East 564 649 37,000  Level FlightAware
11:43AM 41.6110 -102.3220 108° East 564 649 37,000  Level FlightAware
11:43AM 41.5850 -102.2180 108° East 565 650 37,000  Level FlightAware
11:44AM 41.5590 -102.1130 108° East 565 650 37,000  Level FlightAware
11:45AM 41.5320 -102.0030 108° East 565 650 37,000  Level FlightAware
11:45AM 41.5090 -101.9070 108° East 565 650 37,000  Level FlightAware
11:46AM 41.4840 -101.8030 108° East 565 650 37,000  Level FlightAware
11:46AM 41.4590 -101.7020 108° East 565 650 37,000  Level FlightAware
11:47AM 41.4340 -101.6000 108° East 565 650 37,000  Level FlightAware
11:47AM 41.4110 -101.5040 108° East 565 650 37,000  Level FlightAware
11:48AM 41.3780 -101.3690 108° East 565 650 37,000  Level FlightAware
11:49AM 41.3460 -101.2400 108° East 565 650 37,000  Level FlightAware
11:50AM 41.3220 -101.1380 107° East 565 650 37,000  Level FlightAware
11:50AM 41.2970 -101.0370 108° East 565 650 37,000  Level FlightAware
11:51AM 41.2710 -100.9330 108° East 565 650 37,000  Level FlightAware
11:51AM 41.2480 -100.8370 108° East 565 650 37,000  Level FlightAware
11:52AM 41.2140 -100.7000 108° East 565 650 37,000  Level FlightAware
11:53AM 41.1820 -100.5680 108° East 565 650 37,000  Level FlightAware
11:54AM 41.0533 -100.1947 108° East 556 640 37,000  Level Kansas City Center
11:54AM 41.0300 -100.1078 110° East 556 640 37,000  Level Denver Center
12:00PM 40.7479 -98.8773 110° East 556 640 37,000  Level FlightAware ADS-B
12:01PM 40.7020 -98.6790 107° East 555 639 37,000  Level FlightAware
12:02PM 40.6780 -98.5750 107° East 553 636 37,000  Level FlightAware
12:02PM 40.6533 -98.4700 107° East 553 636 37,000  Level FlightAware ADS-B
12:03PM 40.6340 -98.3860 107° East 553 636 37,000  Level FlightAware
12:03PM 40.6480 -98.4476 287° West 554 638 37,000  Level FlightAware ADS-B
12:04PM 40.6049 -98.2647 107° East 553 636 37,000  Level FlightAware ADS-B
12:05PM 40.5450 -98.0130 107° East 553 636 37,000  Level FlightAware
12:05PM 40.5597 -98.0745 287° West 553 636 37,000  Level FlightAware ADS-B
12:06PM 40.4810 -97.7480 107° East 552 635 37,000  Level FlightAware
12:07PM 40.4540 -97.6370 108° East 553 636 37,000  Level FlightAware
12:07PM 40.4250 -97.5180 108° East 552 635 37,000  Level FlightAware
12:08PM 40.3980 -97.4080 108° East 551 634 37,000  Level FlightAware
12:09PM 40.3750 -97.3140 108° East 551 634 37,000  Level FlightAware
12:09PM 40.3380 -97.1620 108° East 549 632 37,000  Level FlightAware
12:10PM 40.3060 -97.0360 108° East 548 631 37,000  Level FlightAware
12:10PM 40.2840 -96.9460 108° East 548 631 37,000  Level FlightAware
12:11PM 40.2520 -96.8210 109° East 549 632 37,000  Level FlightAware
12:12PM 40.2300 -96.7310 108° East 548 631 37,000  Level FlightAware
12:12PM 40.1920 -96.5830 109° East 549 632 37,000  Level FlightAware
12:13PM 40.1490 -96.4140 108° East 551 634 37,000  Level FlightAware
12:14PM 40.1098 -96.2606 108° East 552 635 37,000  Level FlightAware ADS-B
12:15PM 40.0830 -96.1580 109° East 553 636 37,000  Level FlightAware
12:15PM 40.0500 -96.0300 109° East 554 638 37,000  Level FlightAware
12:16PM 40.0373 -95.9808 109° East 554 638 37,000  Level FlightAware ADS-B
12:17PM 39.9890 -95.7950 109° East 554 638 37,000  Level FlightAware
12:17PM 39.9510 -95.6520 109° East 557 641 37,100 60 Climbing FlightAware
12:18PM 39.9490 -95.6460 113° Southeast 557 641 37,100 720 Level FlightAware
12:18PM 39.9170 -95.5250 109° East 553 636 37,900 1,200 Climbing FlightAware
12:19PM 39.8810 -95.3890 109° East 548 631 38,700 900 Climbing FlightAware
12:20PM 39.8580 -95.3010 109° East 548 631 39,000 240 Climbing FlightAware
12:20PM 39.8290 -95.1950 110° East 552 635 39,000  Level FlightAware
12:21PM 39.7600 -94.9390 109° East 553 636 39,000  Level FlightAware
12:22PM 39.7240 -94.8070 109° East 556 640 39,000  Level FlightAware
12:22PM 39.6890 -94.6800 110° East 555 639 39,000  Level FlightAware
12:23PM 39.6480 -94.5300 110° East 557 641 39,000  Level FlightAware
12:24PM 39.6070 -94.3810 110° East 556 640 39,000  Level FlightAware
12:25PM 39.5730 -94.2600 110° East 556 640 39,000  Level FlightAware
12:25PM 39.5420 -94.1490 110° East 556 640 39,000  Level FlightAware
12:26PM 39.5090 -94.0280 109° East 555 639 39,000  Level FlightAware
12:27PM 39.4820 -93.9100 106° East 555 639 39,000  Level FlightAware
12:27PM 39.4500 -93.7520 105° East 555 639 39,000  Level FlightAware
12:28PM 39.4290 -93.6460 104° East 555 639 39,000  Level FlightAware
12:28PM 39.4160 -93.5780 104° East 555 639 39,000  Level FlightAware
12:29PM 39.3750 -93.3800 105° East 556 640 39,000  Level FlightAware
12:30PM 39.3480 -93.2480 105° East 555 639 39,000  Level FlightAware
12:31PM 39.3210 -93.1170 105° East 556 640 39,000  Level FlightAware
12:31PM 39.2990 -93.0130 105° East 555 639 39,000  Level FlightAware
12:32PM 39.2750 -92.8980 105° East 556 640 39,000  Level FlightAware
12:32PM 39.2490 -92.7760 105° East 556 640 39,000  Level FlightAware
12:33PM 39.2190 -92.6330 105° East 556 640 39,000  Level FlightAware
12:34PM 39.1920 -92.5090 106° East 556 640 39,000  Level FlightAware
12:34PM 39.1700 -92.4050 105° East 556 640 39,000  Level FlightAware
12:35PM 39.1330 -92.2320 105° East 556 640 39,000  Level FlightAware
12:36PM 39.1070 -92.1150 106° East 555 639 39,000  Level FlightAware
12:36PM 39.0880 -92.0280 106° East 555 639 39,000  Level FlightAware
12:37PM 39.0600 -91.8920 105° East 555 639 39,000  Level FlightAware
12:38PM 39.0400 -91.7970 105° East 555 639 39,000  Level FlightAware
12:38PM 39.0070 -91.6580 107° East 554 638 39,000  Level FlightAware
12:39PM 38.9870 -91.5630 105° East 554 638 39,000  Level FlightAware
12:39PM 39.0010 -91.6330 284° West 554 638 39,000  Level FlightAware
12:40PM 38.9800 -91.5330 105° East 554 638 39,000  Level FlightAware
12:41PM 38.8870 -91.1270 106° East 556 640 39,000  Level FlightAware
12:42PM 38.8560 -90.9870 106° East 556 640 39,000  Level FlightAware
12:43PM 38.8220 -90.8400 106° East 557 641 39,000  Level FlightAware
12:43PM 38.8010 -90.7500 107° East 557 641 39,000  Level FlightAware
12:44PM 38.7720 -90.6270 107° East 559 643 39,000  Level FlightAware
12:44PM 38.7500 -90.5290 106° East 559 643 39,000  Level FlightAware
12:45PM 38.7250 -90.4250 107° East 559 643 39,000  Level FlightAware
12:46PM 38.6720 -90.1970 107° East 561 646 39,000  Level FlightAware
12:47PM 38.6410 -90.0680 107° East 561 646 39,000  Level FlightAware
12:47PM 38.6110 -89.9430 107° East 562 647 39,000  Level FlightAware
12:48PM 38.5900 -89.8560 107° East 562 647 39,000  Level FlightAware
12:49PM 38.5440 -89.6230 104° East 560 644 39,000  Level FlightAware
12:50PM 38.5320 -89.4930 97° East 561 646 39,000  Level FlightAware
12:50PM 38.5220 -89.3950 97° East 561 646 39,000  Level FlightAware
12:51PM 38.5080 -89.2620 98° East 561 646 39,000  Level FlightAware
12:51PM 38.4950 -89.1510 98° East 562 647 39,000  Level FlightAware
12:52PM 38.4770 -89.0020 99° East 562 647 39,000  Level FlightAware
12:53PM 38.4660 -88.9110 99° East 562 647 39,000 -540 Level FlightAware
12:53PM 38.4520 -88.8000 99° East 560 644 38,500 -1,920 Descending FlightAware
12:54PM 38.4360 -88.6690 99° East 561 646 36,700 -2,940 Descending FlightAware
12:55PM 38.4120 -88.4830 99° East 566 651 33,800 -3,000 Descending FlightAware
12:56PM 38.3950 -88.3510 99° East 556 640 31,900 -3,240 Descending FlightAware
12:56PM 38.3830 -88.2480 98° East 555 639 29,900 -2,400 Descending FlightAware
12:57PM 38.3730 -88.1310 96° East 548 631 29,200 -780 Descending FlightAware
12:57PM 38.3670 -88.0160 94° East 559 643 29,000 -180 Descending FlightAware
12:58PM 38.3610 -87.8820 93° East 561 646 29,000 -660 Level FlightAware
12:58PM 38.3550 -87.7680 94° East 557 641 28,200 -1,800 Descending FlightAware
12:59PM 38.3490 -87.6650 94° East 543 625 27,000 -2,220 Descending FlightAware
01:00PM 38.3420 -87.5290 94° East 523 602 25,400 -2,220 Descending FlightAware
01:00PM 38.3370 -87.4380 94° East 507 583 24,300 -2,400 Descending FlightAware
01:01PM 38.3320 -87.3480 94° East 498 573 23,000 -2,400 Descending FlightAware
01:01PM 38.3240 -87.2510 96° East 482 555 21,700 -2,400 Descending FlightAware
01:02PM 38.3130 -87.1590 99° East 473 544 20,300 -2,460 Descending FlightAware
01:02PM 38.3030 -87.0810 99° East 462 532 19,200 -2,400 Descending FlightAware
01:03PM 38.2890 -86.9710 99° East 454 522 17,500 -2,400 Descending FlightAware
01:04PM 38.2680 -86.8040 99° East 439 505 15,000 -2,280 Descending FlightAware
01:05PM 38.2570 -86.7220 100° East 429 494 13,800 -2,220 Descending FlightAware
01:05PM 38.2470 -86.6450 99° East 422 486 12,600 -2,040 Descending FlightAware
01:06PM 38.2360 -86.5620 100° East 413 475 11,400 -1,200 Descending FlightAware
01:06PM 38.2260 -86.4800 99° East 412 474 11,200 -180 Descending FlightAware
01:07PM 38.2120 -86.3780 100° East 373 429 11,200  Level FlightAware
01:08PM 38.2200 -86.3170 81° East 352 405 11,200  Level FlightAware
01:08PM 38.2430 -86.2510 66° East 341 392 11,200  Level FlightAware
01:09PM 38.2650 -86.1850 67° East 341 392 11,200 -720 Level FlightAware
01:10PM 38.2870 -86.1170 68° East 318 366 10,300 -1,380 Descending FlightAware
01:10PM 38.3040 -86.0660 67° East 286 329 9,700 -1,320 Descending FlightAware
01:11PM 38.3180 -86.0220 68° East 249 287 9,000 -1,860 Descending FlightAware
01:11PM 38.3300 -85.9490 78° East 224 258 7,200 -2,040 Descending FlightAware
01:12PM 38.3270 -85.9160 97° East 220 253 6,300 -2,040 Descending FlightAware
01:12PM 38.3240 -85.8820 96° East 218 251 5,200 -1,800 Descending FlightAware
01:13PM 38.3210 -85.8420 95° East 213 245 4,500 -1,200 Descending FlightAware
01:13PM 38.3140 -85.7990 102° East 188 216 3,900 -1,320 Descending FlightAware
01:14PM 38.2890 -85.7740 142° Southeast 177 204 2,900 -1,440 Descending FlightAware
01:14PM 38.2750 -85.7620 146° Southeast 166 191 2,500 -960 Descending FlightAware
01:15PM 38.2410 -85.7500 165° South 137 158 1,800 -780 Descending FlightAware
01:16PM 38.2140 -85.7400 164° South 142 163 1,300 -720 Descending FlightAware
01:17PM 38.1890 -85.7320 166° South 140 161 800 -780 Descending FlightAware